sensor_id;sensor_type;location;lat;lon;timestamp;P1;durP1;ratioP1;P2;durP2;ratioP2
71360;SDS011;59166;48.908;1.870;2023-11-21T00:01:59;9.48;;;3.22;;
71360;SDS011;59166;48.908;1.870;2023-11-21T00:07:00;10.68;;;3.10;;
71360;SDS011;59166;48.908;1.870;2023-11-21T00:12:03;11.57;;;3.23;;
71360;SDS011;59166;48.908;1.870;2023-11-21T00:17:04;11.30;;;3.20;;
71360;SDS011;59166;48.908;1.870;2023-11-21T00:22:06;11.57;;;3.35;;
71360;SDS011;59166;48.908;1.870;2023-11-21T00:27:08;9.60;;;3.60;;
71360;SDS011;59166;48.908;1.870;2023-11-21T00:32:09;11.25;;;3.50;;
71360;SDS011;59166;48.908;1.870;2023-11-21T00:37:10;10.63;;;3.87;;
71360;SDS011;59166;48.908;1.870;2023-11-21T00:42:12;12.25;;;4.05;;
71360;SDS011;59166;48.908;1.870;2023-11-21T00:47:13;10.90;;;3.27;;
71360;SDS011;59166;48.908;1.870;2023-11-21T00:52:14;11.13;;;3.53;;
71360;SDS011;59166;48.908;1.870;2023-11-21T00:57:16;11.47;;;3.80;;
71360;SDS011;59166;48.908;1.870;2023-11-21T01:02:17;13.23;;;4.53;;
71360;SDS011;59166;48.908;1.870;2023-11-21T01:07:18;14.35;;;4.72;;
71360;SDS011;59166;48.908;1.870;2023-11-21T01:12:20;11.83;;;3.80;;
71360;SDS011;59166;48.908;1.870;2023-11-21T01:17:21;14.02;;;4.10;;
71360;SDS011;59166;48.908;1.870;2023-11-21T01:22:22;11.93;;;3.10;;
71360;SDS011;59166;48.908;1.870;2023-11-21T01:27:24;11.93;;;3.00;;
71360;SDS011;59166;48.908;1.870;2023-11-21T01:32:25;9.45;;;3.05;;
71360;SDS011;59166;48.908;1.870;2023-11-21T01:37:26;14.77;;;3.47;;
71360;SDS011;59166;48.908;1.870;2023-11-21T01:42:28;10.77;;;3.53;;
71360;SDS011;59166;48.908;1.870;2023-11-21T01:47:29;38.87;;;3.33;;
71360;SDS011;59166;48.908;1.870;2023-11-21T01:52:30;10.02;;;3.00;;
71360;SDS011;59166;48.908;1.870;2023-11-21T01:57:32;11.52;;;2.95;;
71360;SDS011;59166;48.908;1.870;2023-11-21T02:02:33;9.33;;;2.70;;
71360;SDS011;59166;48.908;1.870;2023-11-21T02:07:34;7.88;;;2.72;;
71360;SDS011;59166;48.908;1.870;2023-11-21T02:12:37;9.80;;;2.97;;
71360;SDS011;59166;48.908;1.870;2023-11-21T02:17:37;10.73;;;3.00;;
71360;SDS011;59166;48.908;1.870;2023-11-21T02:22:38;11.02;;;3.35;;
71360;SDS011;59166;48.908;1.870;2023-11-21T02:27:42;8.55;;;2.88;;
71360;SDS011;59166;48.908;1.870;2023-11-21T02:32:43;11.90;;;2.80;;
71360;SDS011;59166;48.908;1.870;2023-11-21T02:37:43;10.45;;;3.47;;
71360;SDS011;59166;48.908;1.870;2023-11-21T02:42:46;10.23;;;2.67;;
71360;SDS011;59166;48.908;1.870;2023-11-21T02:47:47;9.60;;;3.10;;
71360;SDS011;59166;48.908;1.870;2023-11-21T02:52:48;11.63;;;3.40;;
71360;SDS011;59166;48.908;1.870;2023-11-21T02:57:51;11.13;;;3.40;;
71360;SDS011;59166;48.908;1.870;2023-11-21T03:02:51;9.52;;;3.17;;
71360;SDS011;59166;48.908;1.870;2023-11-21T03:07:53;10.52;;;2.90;;
71360;SDS011;59166;48.908;1.870;2023-11-21T03:12:55;8.73;;;2.87;;
71360;SDS011;59166;48.908;1.870;2023-11-21T03:17:56;10.00;;;3.10;;
71360;SDS011;59166;48.908;1.870;2023-11-21T03:22:57;9.82;;;3.15;;
71360;SDS011;59166;48.908;1.870;2023-11-21T03:27:59;9.37;;;2.70;;
71360;SDS011;59166;48.908;1.870;2023-11-21T03:33:00;8.80;;;2.80;;
71360;SDS011;59166;48.908;1.870;2023-11-21T03:38:01;8.80;;;2.80;;
71360;SDS011;59166;48.908;1.870;2023-11-21T03:43:04;8.30;;;2.87;;
71360;SDS011;59166;48.908;1.870;2023-11-21T03:48:04;7.97;;;2.72;;
71360;SDS011;59166;48.908;1.870;2023-11-21T03:53:05;9.33;;;3.00;;
71360;SDS011;59166;48.908;1.870;2023-11-21T03:58:08;10.40;;;2.80;;
71360;SDS011;59166;48.908;1.870;2023-11-21T04:03:08;9.18;;;2.95;;
71360;SDS011;59166;48.908;1.870;2023-11-21T04:08:09;9.50;;;2.90;;
71360;SDS011;59166;48.908;1.870;2023-11-21T04:13:12;8.20;;;2.78;;
71360;SDS011;59166;48.908;1.870;2023-11-21T04:18:12;6.77;;;2.43;;
71360;SDS011;59166;48.908;1.870;2023-11-21T04:23:13;8.07;;;2.70;;
71360;SDS011;59166;48.908;1.870;2023-11-21T04:28:16;7.10;;;2.40;;
71360;SDS011;59166;48.908;1.870;2023-11-21T04:33:16;8.97;;;2.60;;
71360;SDS011;59166;48.908;1.870;2023-11-21T04:38:17;6.78;;;2.30;;
71360;SDS011;59166;48.908;1.870;2023-11-21T04:43:19;7.03;;;2.57;;
71360;SDS011;59166;48.908;1.870;2023-11-21T04:48:20;8.18;;;2.70;;
71360;SDS011;59166;48.908;1.870;2023-11-21T04:53:21;8.37;;;2.50;;
71360;SDS011;59166;48.908;1.870;2023-11-21T04:58:23;7.37;;;2.43;;
71360;SDS011;59166;48.908;1.870;2023-11-21T05:03:24;6.28;;;2.50;;
71360;SDS011;59166;48.908;1.870;2023-11-21T05:08:25;7.07;;;2.40;;
71360;SDS011;59166;48.908;1.870;2023-11-21T05:13:27;8.95;;;2.60;;
71360;SDS011;59166;48.908;1.870;2023-11-21T05:18:28;7.00;;;2.60;;
71360;SDS011;59166;48.908;1.870;2023-11-21T05:23:29;7.70;;;2.88;;
71360;SDS011;59166;48.908;1.870;2023-11-21T05:28:31;8.83;;;3.00;;
71360;SDS011;59166;48.908;1.870;2023-11-21T05:33:32;10.45;;;3.28;;
71360;SDS011;59166;48.908;1.870;2023-11-21T05:38:33;9.83;;;3.50;;
71360;SDS011;59166;48.908;1.870;2023-11-21T05:43:35;9.45;;;3.58;;
71360;SDS011;59166;48.908;1.870;2023-11-21T05:48:36;12.57;;;4.50;;
71360;SDS011;59166;48.908;1.870;2023-11-21T05:53:37;11.87;;;4.80;;
71360;SDS011;59166;48.908;1.870;2023-11-21T05:58:39;11.65;;;4.93;;
71360;SDS011;59166;48.908;1.870;2023-11-21T06:03:40;12.83;;;5.43;;
71360;SDS011;59166;48.908;1.870;2023-11-21T06:08:41;12.77;;;4.80;;
71360;SDS011;59166;48.908;1.870;2023-11-21T06:13:43;16.25;;;5.63;;
71360;SDS011;59166;48.908;1.870;2023-11-21T06:18:45;13.70;;;5.30;;
71360;SDS011;59166;48.908;1.870;2023-11-21T06:23:46;15.25;;;5.80;;
71360;SDS011;59166;48.908;1.870;2023-11-21T06:28:48;14.53;;;6.07;;
71360;SDS011;59166;48.908;1.870;2023-11-21T06:33:49;16.70;;;6.82;;
71360;SDS011;59166;48.908;1.870;2023-11-21T06:38:50;18.70;;;6.63;;
71360;SDS011;59166;48.908;1.870;2023-11-21T06:43:52;17.57;;;6.80;;
71360;SDS011;59166;48.908;1.870;2023-11-21T06:48:53;15.05;;;6.50;;
71360;SDS011;59166;48.908;1.870;2023-11-21T06:53:53;15.97;;;6.60;;
71360;SDS011;59166;48.908;1.870;2023-11-21T06:58:56;16.10;;;6.65;;
71360;SDS011;59166;48.908;1.870;2023-11-21T07:03:57;16.13;;;6.10;;
71360;SDS011;59166;48.908;1.870;2023-11-21T07:08:57;14.60;;;5.65;;
71360;SDS011;59166;48.908;1.870;2023-11-21T07:14:00;14.60;;;6.13;;
71360;SDS011;59166;48.908;1.870;2023-11-21T07:19:01;16.00;;;5.97;;
71360;SDS011;59166;48.908;1.870;2023-11-21T07:24:02;16.13;;;6.25;;
71360;SDS011;59166;48.908;1.870;2023-11-21T07:29:04;17.73;;;6.80;;
71360;SDS011;59166;48.908;1.870;2023-11-21T07:34:05;16.83;;;6.43;;
71360;SDS011;59166;48.908;1.870;2023-11-21T07:39:06;17.90;;;6.60;;
71360;SDS011;59166;48.908;1.870;2023-11-21T07:44:08;20.73;;;7.82;;
71360;SDS011;59166;48.908;1.870;2023-11-21T07:49:09;20.55;;;7.95;;
71360;SDS011;59166;48.908;1.870;2023-11-21T07:54:10;17.50;;;6.77;;
71360;SDS011;59166;48.908;1.870;2023-11-21T07:59:12;16.30;;;6.78;;
71360;SDS011;59166;48.908;1.870;2023-11-21T08:04:13;22.60;;;7.17;;
71360;SDS011;59166;48.908;1.870;2023-11-21T08:09:14;19.13;;;7.25;;
71360;SDS011;59166;48.908;1.870;2023-11-21T08:14:16;18.30;;;7.03;;
71360;SDS011;59166;48.908;1.870;2023-11-21T08:19:17;15.65;;;6.70;;
71360;SDS011;59166;48.908;1.870;2023-11-21T08:24:18;16.33;;;6.72;;
71360;SDS011;59166;48.908;1.870;2023-11-21T08:29:20;18.23;;;7.50;;
71360;SDS011;59166;48.908;1.870;2023-11-21T08:34:21;19.75;;;6.63;;
71360;SDS011;59166;48.908;1.870;2023-11-21T08:39:22;19.73;;;7.60;;
71360;SDS011;59166;48.908;1.870;2023-11-21T08:44:25;17.15;;;6.90;;
71360;SDS011;59166;48.908;1.870;2023-11-21T08:49:25;19.13;;;7.13;;
71360;SDS011;59166;48.908;1.870;2023-11-21T08:54:26;19.23;;;6.50;;
71360;SDS011;59166;48.908;1.870;2023-11-21T08:59:29;17.70;;;6.57;;
71360;SDS011;59166;48.908;1.870;2023-11-21T09:04:29;15.80;;;5.57;;
71360;SDS011;59166;48.908;1.870;2023-11-21T09:09:30;16.73;;;6.20;;
71360;SDS011;59166;48.908;1.870;2023-11-21T09:14:32;18.33;;;6.27;;
71360;SDS011;59166;48.908;1.870;2023-11-21T09:19:33;13.68;;;5.20;;
71360;SDS011;59166;48.908;1.870;2023-11-21T09:24:34;13.03;;;4.97;;
71360;SDS011;59166;48.908;1.870;2023-11-21T09:29:36;12.85;;;3.80;;
71360;SDS011;59166;48.908;1.870;2023-11-21T09:34:37;11.10;;;3.77;;
71360;SDS011;59166;48.908;1.870;2023-11-21T09:39:38;11.13;;;3.08;;
71360;SDS011;59166;48.908;1.870;2023-11-21T09:44:44;8.50;;;2.30;;
71360;SDS011;59166;48.908;1.870;2023-11-21T09:49:48;7.80;;;1.87;;
71360;SDS011;59166;48.908;1.870;2023-11-21T09:54:49;8.13;;;2.38;;
71360;SDS011;59166;48.908;1.870;2023-11-21T09:59:53;7.90;;;2.50;;
71360;SDS011;59166;48.908;1.870;2023-11-21T10:04:54;7.13;;;2.20;;
71360;SDS011;59166;48.908;1.870;2023-11-21T10:09:55;6.95;;;2.33;;
71360;SDS011;59166;48.908;1.870;2023-11-21T10:14:59;7.35;;;2.15;;
71360;SDS011;59166;48.908;1.870;2023-11-21T10:20:00;7.97;;;2.00;;
71360;SDS011;59166;48.908;1.870;2023-11-21T10:25:02;8.75;;;1.63;;
71360;SDS011;59166;48.908;1.870;2023-11-21T10:30:06;4.63;;;1.50;;
71360;SDS011;59166;48.908;1.870;2023-11-21T10:35:07;6.83;;;1.70;;
71360;SDS011;59166;48.908;1.870;2023-11-21T10:40:09;11.20;;;1.75;;
71360;SDS011;59166;48.908;1.870;2023-11-21T10:45:12;8.23;;;1.50;;
71360;SDS011;59166;48.908;1.870;2023-11-21T10:50:13;4.17;;;1.20;;
71360;SDS011;59166;48.908;1.870;2023-11-21T10:55:17;5.80;;;1.20;;
71360;SDS011;59166;48.908;1.870;2023-11-21T11:00:19;8.70;;;1.70;;
71360;SDS011;59166;48.908;1.870;2023-11-21T11:05:21;6.70;;;1.10;;
71360;SDS011;59166;48.908;1.870;2023-11-21T11:10:23;3.45;;;1.00;;
71360;SDS011;59166;48.908;1.870;2023-11-21T11:15:26;3.67;;;1.00;;
71360;SDS011;59166;48.908;1.870;2023-11-21T11:20:29;4.57;;;1.00;;
71360;SDS011;59166;48.908;1.870;2023-11-21T11:25:37;4.25;;;1.08;;
71360;SDS011;59166;48.908;1.870;2023-11-21T11:30:56;7.20;;;1.10;;
71360;SDS011;59166;48.908;1.870;2023-11-21T11:36:05;3.30;;;1.00;;
71360;SDS011;59166;48.908;1.870;2023-11-21T11:41:09;5.73;;;1.30;;
71360;SDS011;59166;48.908;1.870;2023-11-21T11:46:11;4.97;;;1.38;;
71360;SDS011;59166;48.908;1.870;2023-11-21T11:51:12;5.10;;;1.43;;
71360;SDS011;59166;48.908;1.870;2023-11-21T11:56:24;3.60;;;1.00;;
71360;SDS011;59166;48.908;1.870;2023-11-21T12:01:28;4.55;;;1.25;;
71360;SDS011;59166;48.908;1.870;2023-11-21T12:06:32;5.17;;;1.37;;
71360;SDS011;59166;48.908;1.870;2023-11-21T12:11:34;5.70;;;1.35;;
71360;SDS011;59166;48.908;1.870;2023-11-21T12:16:38;4.43;;;1.50;;
71360;SDS011;59166;48.908;1.870;2023-11-21T12:21:39;6.83;;;1.40;;
71360;SDS011;59166;48.908;1.870;2023-11-21T12:26:41;4.53;;;1.27;;
71360;SDS011;59166;48.908;1.870;2023-11-21T12:31:44;4.70;;;1.20;;
71360;SDS011;59166;48.908;1.870;2023-11-21T12:36:45;4.10;;;1.20;;
71360;SDS011;59166;48.908;1.870;2023-11-21T12:41:46;4.17;;;1.30;;
71360;SDS011;59166;48.908;1.870;2023-11-21T12:46:48;4.00;;;1.27;;
71360;SDS011;59166;48.908;1.870;2023-11-21T12:51:49;3.97;;;1.30;;
71360;SDS011;59166;48.908;1.870;2023-11-21T12:56:51;5.45;;;1.60;;
71360;SDS011;59166;48.908;1.870;2023-11-21T13:01:53;5.30;;;1.27;;
71360;SDS011;59166;48.908;1.870;2023-11-21T13:06:54;5.32;;;1.40;;
71360;SDS011;59166;48.908;1.870;2023-11-21T13:11:59;5.28;;;1.42;;
71360;SDS011;59166;48.908;1.870;2023-11-21T13:17:02;8.13;;;1.63;;
71360;SDS011;59166;48.908;1.870;2023-11-21T13:22:03;5.80;;;1.30;;
71360;SDS011;59166;48.908;1.870;2023-11-21T13:27:04;4.60;;;1.35;;
71360;SDS011;59166;48.908;1.870;2023-11-21T13:32:06;8.63;;;2.13;;
71360;SDS011;59166;48.908;1.870;2023-11-21T13:37:07;6.40;;;2.00;;
71360;SDS011;59166;48.908;1.870;2023-11-21T13:42:10;7.70;;;1.80;;
71360;SDS011;59166;48.908;1.870;2023-11-21T13:47:13;6.47;;;2.17;;
71360;SDS011;59166;48.908;1.870;2023-11-21T13:52:14;5.32;;;1.90;;
71360;SDS011;59166;48.908;1.870;2023-11-21T13:57:14;8.20;;;2.37;;
71360;SDS011;59166;48.908;1.870;2023-11-21T14:02:17;8.13;;;2.38;;
71360;SDS011;59166;48.908;1.870;2023-11-21T14:07:18;7.57;;;2.40;;
71360;SDS011;59166;48.908;1.870;2023-11-21T14:12:20;6.05;;;2.00;;
71360;SDS011;59166;48.908;1.870;2023-11-21T14:17:22;12.37;;;4.27;;
71360;SDS011;59166;48.908;1.870;2023-11-21T14:22:23;8.70;;;2.90;;
71360;SDS011;59166;48.908;1.870;2023-11-21T14:27:24;7.70;;;2.42;;
71360;SDS011;59166;48.908;1.870;2023-11-21T14:32:26;7.43;;;2.20;;
71360;SDS011;59166;48.908;1.870;2023-11-21T14:37:27;9.15;;;2.50;;
71360;SDS011;59166;48.908;1.870;2023-11-21T14:42:28;8.37;;;2.70;;
71360;SDS011;59166;48.908;1.870;2023-11-21T14:47:30;8.60;;;3.10;;
71360;SDS011;59166;48.908;1.870;2023-11-21T14:52:31;8.83;;;2.50;;
71360;SDS011;59166;48.908;1.870;2023-11-21T14:57:34;8.68;;;3.13;;
71360;SDS011;59166;48.908;1.870;2023-11-21T15:02:36;11.57;;;3.27;;
71360;SDS011;59166;48.908;1.870;2023-11-21T15:07:39;11.73;;;2.75;;
71360;SDS011;59166;48.908;1.870;2023-11-21T15:12:40;6.53;;;1.80;;
71360;SDS011;59166;48.908;1.870;2023-11-21T15:17:42;6.70;;;1.90;;
71360;SDS011;59166;48.908;1.870;2023-11-21T15:22:43;6.85;;;1.50;;
71360;SDS011;59166;48.908;1.870;2023-11-21T15:27:43;6.50;;;1.37;;
71360;SDS011;59166;48.908;1.870;2023-11-21T15:32:46;10.23;;;2.10;;
71360;SDS011;59166;48.908;1.870;2023-11-21T15:37:46;9.73;;;2.17;;
71360;SDS011;59166;48.908;1.870;2023-11-21T15:42:47;9.17;;;2.03;;
71360;SDS011;59166;48.908;1.870;2023-11-21T15:47:50;7.93;;;2.10;;
71360;SDS011;59166;48.908;1.870;2023-11-21T15:52:50;7.17;;;1.70;;
71360;SDS011;59166;48.908;1.870;2023-11-21T15:57:51;7.72;;;1.90;;
71360;SDS011;59166;48.908;1.870;2023-11-21T16:02:54;11.10;;;3.63;;
71360;SDS011;59166;48.908;1.870;2023-11-21T16:07:54;10.43;;;4.20;;
71360;SDS011;59166;48.908;1.870;2023-11-21T16:12:55;9.75;;;3.60;;
71360;SDS011;59166;48.908;1.870;2023-11-21T16:17:57;9.80;;;3.03;;
71360;SDS011;59166;48.908;1.870;2023-11-21T16:22:58;8.73;;;2.88;;
71360;SDS011;59166;48.908;1.870;2023-11-21T16:27:59;7.00;;;2.47;;
71360;SDS011;59166;48.908;1.870;2023-11-21T16:33:01;8.60;;;2.30;;
71360;SDS011;59166;48.908;1.870;2023-11-21T16:38:02;6.93;;;2.17;;
71360;SDS011;59166;48.908;1.870;2023-11-21T16:43:03;9.27;;;2.80;;
71360;SDS011;59166;48.908;1.870;2023-11-21T16:48:08;9.80;;;3.07;;
71360;SDS011;59166;48.908;1.870;2023-11-21T16:53:09;8.80;;;3.10;;
71360;SDS011;59166;48.908;1.870;2023-11-21T16:58:10;7.67;;;3.17;;
71360;SDS011;59166;48.908;1.870;2023-11-21T17:03:12;12.23;;;4.15;;
71360;SDS011;59166;48.908;1.870;2023-11-21T17:08:13;11.60;;;4.70;;
71360;SDS011;59166;48.908;1.870;2023-11-21T17:13:14;8.77;;;3.40;;
71360;SDS011;59166;48.908;1.870;2023-11-21T17:18:16;11.27;;;4.78;;
71360;SDS011;59166;48.908;1.870;2023-11-21T17:23:17;11.00;;;3.90;;
71360;SDS011;59166;48.908;1.870;2023-11-21T17:28:17;9.98;;;4.35;;
71360;SDS011;59166;48.908;1.870;2023-11-21T17:33:20;20.43;;;9.10;;
71360;SDS011;59166;48.908;1.870;2023-11-21T17:38:20;12.20;;;5.72;;
71360;SDS011;59166;48.908;1.870;2023-11-21T17:43:21;10.13;;;3.70;;
71360;SDS011;59166;48.908;1.870;2023-11-21T17:48:24;11.35;;;4.00;;
71360;SDS011;59166;48.908;1.870;2023-11-21T17:53:24;13.33;;;4.17;;
71360;SDS011;59166;48.908;1.870;2023-11-21T17:58:25;11.10;;;4.15;;
71360;SDS011;59166;48.908;1.870;2023-11-21T18:03:27;10.07;;;4.50;;
71360;SDS011;59166;48.908;1.870;2023-11-21T18:08:28;11.35;;;4.53;;
71360;SDS011;59166;48.908;1.870;2023-11-21T18:13:29;14.07;;;6.10;;
71360;SDS011;59166;48.908;1.870;2023-11-21T18:18:31;10.45;;;4.97;;
71360;SDS011;59166;48.908;1.870;2023-11-21T18:23:32;12.53;;;5.10;;
71360;SDS011;59166;48.908;1.870;2023-11-21T18:28:33;11.27;;;4.80;;
71360;SDS011;59166;48.908;1.870;2023-11-21T18:33:35;11.43;;;4.97;;
71360;SDS011;59166;48.908;1.870;2023-11-21T18:38:37;10.98;;;4.40;;
71360;SDS011;59166;48.908;1.870;2023-11-21T18:43:39;11.15;;;4.55;;
71360;SDS011;59166;48.908;1.870;2023-11-21T18:48:41;11.13;;;4.20;;
71360;SDS011;59166;48.908;1.870;2023-11-21T18:53:42;10.10;;;4.43;;
71360;SDS011;59166;48.908;1.870;2023-11-21T18:58:43;11.23;;;4.95;;
71360;SDS011;59166;48.908;1.870;2023-11-21T19:03:45;11.80;;;5.10;;
71360;SDS011;59166;48.908;1.870;2023-11-21T19:08:46;15.05;;;5.60;;
71360;SDS011;59166;48.908;1.870;2023-11-21T19:13:47;15.07;;;7.20;;
71360;SDS011;59166;48.908;1.870;2023-11-21T19:18:49;15.35;;;7.55;;
71360;SDS011;59166;48.908;1.870;2023-11-21T19:23:50;14.73;;;7.87;;
71360;SDS011;59166;48.908;1.870;2023-11-21T19:28:51;18.80;;;7.00;;
71360;SDS011;59166;48.908;1.870;2023-11-21T19:33:53;19.30;;;8.57;;
71360;SDS011;59166;48.908;1.870;2023-11-21T19:38:54;14.73;;;7.28;;
71360;SDS011;59166;48.908;1.870;2023-11-21T19:43:54;17.23;;;8.30;;
71360;SDS011;59166;48.908;1.870;2023-11-21T19:48:57;17.30;;;7.37;;
71360;SDS011;59166;48.908;1.870;2023-11-21T19:53:57;15.32;;;6.63;;
71360;SDS011;59166;48.908;1.870;2023-11-21T19:58:58;15.80;;;6.97;;
71360;SDS011;59166;48.908;1.870;2023-11-21T20:04:01;13.57;;;7.22;;
71360;SDS011;59166;48.908;1.870;2023-11-21T20:09:01;18.43;;;7.87;;
71360;SDS011;59166;48.908;1.870;2023-11-21T20:14:02;15.68;;;7.45;;
71360;SDS011;59166;48.908;1.870;2023-11-21T20:19:04;15.00;;;7.63;;
71360;SDS011;59166;48.908;1.870;2023-11-21T20:24:06;14.10;;;6.32;;
71360;SDS011;59166;48.908;1.870;2023-11-21T20:29:08;10.60;;;4.30;;
71360;SDS011;59166;48.908;1.870;2023-11-21T20:34:10;9.90;;;4.10;;
71360;SDS011;59166;48.908;1.870;2023-11-21T20:39:11;9.95;;;4.22;;
71360;SDS011;59166;48.908;1.870;2023-11-21T20:44:12;14.37;;;5.17;;
71360;SDS011;59166;48.908;1.870;2023-11-21T20:49:14;11.85;;;5.53;;
71360;SDS011;59166;48.908;1.870;2023-11-21T20:54:15;15.63;;;5.90;;
71360;SDS011;59166;48.908;1.870;2023-11-21T20:59:16;14.88;;;6.00;;
71360;SDS011;59166;48.908;1.870;2023-11-21T21:04:18;15.40;;;6.20;;
71360;SDS011;59166;48.908;1.870;2023-11-21T21:09:19;15.50;;;7.97;;
71360;SDS011;59166;48.908;1.870;2023-11-21T21:14:20;18.05;;;8.35;;
71360;SDS011;59166;48.908;1.870;2023-11-21T21:19:22;18.80;;;7.47;;
71360;SDS011;59166;48.908;1.870;2023-11-21T21:24:23;15.77;;;7.35;;
71360;SDS011;59166;48.908;1.870;2023-11-21T21:29:24;14.50;;;6.83;;
71360;SDS011;59166;48.908;1.870;2023-11-21T21:34:26;11.98;;;6.10;;
71360;SDS011;59166;48.908;1.870;2023-11-21T21:39:27;11.97;;;5.30;;
71360;SDS011;59166;48.908;1.870;2023-11-21T21:44:28;13.10;;;6.18;;
71360;SDS011;59166;48.908;1.870;2023-11-21T21:49:30;11.53;;;5.77;;
71360;SDS011;59166;48.908;1.870;2023-11-21T21:54:31;13.15;;;5.20;;
71360;SDS011;59166;48.908;1.870;2023-11-21T21:59:32;11.23;;;5.07;;
71360;SDS011;59166;48.908;1.870;2023-11-21T22:04:34;14.98;;;4.65;;
71360;SDS011;59166;48.908;1.870;2023-11-21T22:09:34;15.67;;;5.20;;
71360;SDS011;59166;48.908;1.870;2023-11-21T22:14:35;13.88;;;5.15;;
71360;SDS011;59166;48.908;1.870;2023-11-21T22:19:37;11.57;;;4.43;;
71360;SDS011;59166;48.908;1.870;2023-11-21T22:24:38;15.82;;;5.45;;
71360;SDS011;59166;48.908;1.870;2023-11-21T22:29:39;15.50;;;4.83;;
71360;SDS011;59166;48.908;1.870;2023-11-21T22:34:41;12.00;;;4.13;;
71360;SDS011;59166;48.908;1.870;2023-11-21T22:39:42;13.10;;;4.27;;
71360;SDS011;59166;48.908;1.870;2023-11-21T22:44:43;12.82;;;5.15;;
71360;SDS011;59166;48.908;1.870;2023-11-21T22:49:45;11.77;;;3.93;;
71360;SDS011;59166;48.908;1.870;2023-11-21T22:54:46;14.32;;;4.10;;
71360;SDS011;59166;48.908;1.870;2023-11-21T22:59:46;11.33;;;3.70;;
71360;SDS011;59166;48.908;1.870;2023-11-21T23:04:49;12.00;;;4.22;;
71360;SDS011;59166;48.908;1.870;2023-11-21T23:09:49;10.97;;;4.63;;
71360;SDS011;59166;48.908;1.870;2023-11-21T23:14:50;12.50;;;4.40;;
71360;SDS011;59166;48.908;1.870;2023-11-21T23:19:52;11.70;;;4.47;;
71360;SDS011;59166;48.908;1.870;2023-11-21T23:24:53;12.88;;;4.40;;
71360;SDS011;59166;48.908;1.870;2023-11-21T23:29:54;12.50;;;4.83;;
71360;SDS011;59166;48.908;1.870;2023-11-21T23:34:56;12.65;;;4.85;;
71360;SDS011;59166;48.908;1.870;2023-11-21T23:39:57;12.10;;;4.73;;
71360;SDS011;59166;48.908;1.870;2023-11-21T23:44:57;11.23;;;4.70;;
71360;SDS011;59166;48.908;1.870;2023-11-21T23:50:00;13.73;;;4.75;;
71360;SDS011;59166;48.908;1.870;2023-11-21T23:55:00;14.37;;;4.93;;
